Time;durP1;ratioP1;P1;durP2;ratioP2;P2;SDS_P1;SDS_P2;PMS_P1;PMS_P2;Temp;Humidity;BMP_temperature;BMP_pressure;BME280_temperature;BME280_humidity;BME280_pressure;Samples;Min_cycle;Max_cycle;Signal;HPM_P1;HPM_P2
2023/09/15 00:01:34;;;;;;;3.90;3.20;;;;;;;19.89;52.51;97712.75;5032578;28;20575;-74
2023/09/15 00:04:03;;;;;;;4.23;3.23;;;;;;;19.89;52.44;97719.91;5036612;28;20434;-72
2023/09/15 00:06:28;;;;;;;4.60;3.57;;;;;;;19.88;52.26;97723.59;5047918;28;20487;-73
2023/09/15 00:08:54;;;;;;;5.90;3.13;;;;;;;19.84;52.60;97709.84;5029978;28;20470;-72
2023/09/15 00:11:19;;;;;;;3.33;3.03;;;;;;;19.86;52.34;97714.97;5036577;28;20215;-73
2023/09/15 00:13:45;;;;;;;4.50;3.40;;;;;;;19.85;52.16;97716.78;5039285;28;20202;-71
2023/09/15 00:16:43;;;;;;;3.20;2.90;;;;;;;19.77;52.43;97715.16;5031001;28;20222;-72
2023/09/15 00:19:14;;;;;;;4.53;3.70;;;;;;;19.75;52.48;97719.00;5027540;28;20512;-72
2023/09/15 00:21:44;;;;;;;3.83;3.20;;;;;;;19.74;52.29;97712.03;5011202;28;20464;-72
2023/09/15 00:24:09;;;;;;;5.93;3.23;;;;;;;19.69;52.63;97711.84;4999152;28;20437;-71
2023/09/15 00:26:35;;;;;;;3.77;3.20;;;;;;;19.70;52.55;97719.59;5034481;28;20807;-74
2023/09/15 00:29:02;;;;;;;3.30;3.00;;;;;;;19.70;52.59;97710.81;5028662;28;20269;-72
2023/09/15 00:31:28;;;;;;;4.57;2.50;;;;;;;19.67;52.81;97711.22;5026424;28;20216;-72
2023/09/15 00:33:53;;;;;;;3.60;3.30;;;;;;;19.64;52.40;97712.44;5023365;28;20434;-73
2023/09/15 00:36:19;;;;;;;3.33;3.03;;;;;;;19.60;52.33;97705.84;4999873;28;20525;-72
2023/09/15 00:38:44;;;;;;;3.67;3.07;;;;;;;19.56;52.62;97701.94;5029539;28;20180;-72
2023/09/15 00:41:10;;;;;;;4.37;3.53;;;;;;;19.53;52.76;97705.03;5031514;28;20211;-72
2023/09/15 00:43:35;;;;;;;3.03;2.73;;;;;;;19.52;52.76;97706.84;5039858;28;20249;-73
2023/09/15 00:46:02;;;;;;;3.60;2.73;;;;;;;19.49;52.58;97705.41;5038282;28;20246;-73
2023/09/15 00:48:28;;;;;;;5.33;3.57;;;;;;;19.51;53.00;97696.41;5033523;28;20219;-73
2023/09/15 00:50:53;;;;;;;9.23;3.30;;;;;;;19.49;52.76;97694.78;5015183;28;21001;-73
2023/09/15 00:53:20;;;;;;;3.50;3.07;;;;;;;19.48;52.89;97695.78;5033242;28;20607;-73
2023/09/15 00:55:47;;;;;;;3.27;2.97;;;;;;;19.44;52.41;97697.19;5005823;28;20214;-73
2023/09/15 00:58:15;;;;;;;6.63;2.87;;;;;;;19.40;52.83;97690.66;5022754;28;20455;-71
2023/09/15 01:00:42;;;;;;;3.60;3.20;;;;;;;19.33;53.05;97700.41;5032800;28;20442;-72
2023/09/15 01:03:08;;;;;;;6.87;3.00;;;;;;;19.32;52.99;97699.59;5037931;28;20438;-72
2023/09/15 01:05:34;;;;;;;5.20;3.60;;;;;;;19.32;53.21;97688.97;5037016;28;20939;-71
2023/09/15 01:08:00;;;;;;;4.13;2.93;;;;;;;19.34;53.18;97689.56;5036879;28;20490;-71
2023/09/15 01:10:25;;;;;;;4.00;2.77;;;;;;;19.39;53.03;97683.69;5035597;28;21012;-71
2023/09/15 01:12:53;;;;;;;3.10;2.80;;;;;;;19.38;52.64;97681.22;5032028;28;20202;-72
2023/09/15 01:15:19;;;;;;;3.23;3.00;;;;;;;19.35;52.81;97685.09;5025272;28;20344;-71
2023/09/15 01:17:44;;;;;;;4.33;2.73;;;;;;;19.33;52.55;97677.34;5001830;28;20502;-74
2023/09/15 01:20:15;;;;;;;3.70;3.17;;;;;;;19.33;52.75;97679.16;5037845;28;20895;-72
2023/09/15 01:23:10;;;;;;;4.10;3.43;;;;;;;19.33;52.66;97671.19;5039311;28;20231;-71
2023/09/15 01:26:04;;;;;;;4.80;3.37;;;;;;;19.32;52.61;97672.19;5027111;28;20433;-72
2023/09/15 01:28:57;;;;;;;3.30;3.00;;;;;;;19.26;52.75;97671.16;5017670;28;20465;-73
2023/09/15 01:31:23;;;;;;;3.03;2.70;;;;;;;19.25;52.77;97666.84;5031497;28;20880;-72
2023/09/15 01:33:49;;;;;;;3.20;2.90;;;;;;;19.25;52.85;97668.69;5041304;28;20431;-71
2023/09/15 01:36:14;;;;;;;3.60;3.00;;;;;;;19.22;52.85;97672.56;5036760;28;20438;-71
2023/09/15 01:38:40;;;;;;;4.37;3.10;;;;;;;19.21;52.79;97678.06;5047183;28;20670;-72
2023/09/15 01:41:05;;;;;;;6.83;3.27;;;;;;;19.19;52.89;97672.97;5040004;28;20284;-71
2023/09/15 01:43:30;;;;;;;3.90;3.50;;;;;;;19.18;52.79;97674.78;5033820;28;20278;-72
2023/09/15 01:45:56;;;;;;;3.97;2.90;;;;;;;19.13;52.86;97679.88;5041986;28;20243;-73
2023/09/15 01:48:22;;;;;;;3.60;3.30;;;;;;;19.11;53.15;97671.28;5037755;28;20222;-71
2023/09/15 01:50:49;;;;;;;5.07;3.00;;;;;;;19.14;53.02;97670.91;5030792;28;20211;-74
2023/09/15 01:53:14;;;;;;;3.63;2.90;;;;;;;19.11;52.85;97673.09;5023373;28;20434;-73
2023/09/15 01:55:40;;;;;;;6.57;3.10;;;;;;;19.10;53.09;97674.13;5041702;28;20439;-71
2023/09/15 01:58:06;;;;;;;2.70;2.50;;;;;;;19.05;53.00;97672.06;5015257;28;20620;-72
2023/09/15 02:00:33;;;;;;;3.53;3.20;;;;;;;19.03;53.06;97668.75;5036656;28;20553;-72
2023/09/15 02:02:58;;;;;;;6.00;3.03;;;;;;;19.02;53.04;97667.16;5028371;28;20239;-72
2023/09/15 02:05:24;;;;;;;4.00;3.43;;;;;;;19.00;53.09;97669.19;5023991;28;20541;-71
2023/09/15 02:07:50;;;;;;;7.90;2.90;;;;;;;18.97;53.20;97674.88;5019717;28;20219;-72
2023/09/15 02:10:15;;;;;;;3.80;3.07;;;;;;;18.89;53.32;97667.84;5039034;28;20211;-71
2023/09/15 02:12:41;;;;;;;4.70;2.80;;;;;;;18.91;53.34;97665.81;5020752;28;20188;-72
2023/09/15 02:15:07;;;;;;;3.07;2.77;;;;;;;18.91;53.39;97670.28;5029277;28;20859;-72
2023/09/15 02:17:32;;;;;;;3.27;2.97;;;;;;;18.92;53.13;97677.25;5041121;28;20198;-72
2023/09/15 02:19:58;;;;;;;4.20;3.30;;;;;;;18.92;53.08;97669.28;5045256;28;20954;-72
2023/09/15 02:22:24;;;;;;;3.30;3.00;;;;;;;18.92;53.19;97678.09;5039585;28;20214;-72
2023/09/15 02:24:50;;;;;;;7.00;3.00;;;;;;;18.87;53.37;97676.00;5045106;28;20194;-72
2023/09/15 02:27:15;;;;;;;2.93;2.60;;;;;;;18.86;53.50;97677.03;5032310;28;20848;-73
2023/09/15 02:29:41;;;;;;;4.17;2.63;;;;;;;18.87;53.36;97675.19;5032499;28;20194;-72
2023/09/15 02:32:06;;;;;;;4.27;3.07;;;;;;;18.88;53.51;97682.13;5032118;28;20679;-71
2023/09/15 02:34:32;;;;;;;3.10;2.80;;;;;;;18.85;53.31;97678.03;5011947;28;20188;-72
2023/09/15 02:36:57;;;;;;;2.70;2.50;;;;;;;18.86;52.72;97678.84;5035793;28;20191;-72
2023/09/15 02:39:22;;;;;;;5.80;3.10;;;;;;;18.83;53.17;97679.25;5038553;28;20565;-71
2023/09/15 02:41:48;;;;;;;3.43;2.60;;;;;;;18.81;53.31;97681.28;5033708;28;20243;-71
2023/09/15 02:44:13;;;;;;;3.40;2.70;;;;;;;18.75;53.34;97672.25;5042560;28;20277;-72
2023/09/15 02:46:39;;;;;;;3.90;3.30;;;;;;;18.76;53.41;97678.38;5030939;28;20286;-73
2023/09/15 02:49:04;;;;;;;3.53;3.23;;;;;;;18.77;53.50;97670.22;5036069;28;20302;-72
2023/09/15 02:51:30;;;;;;;4.33;3.00;;;;;;;18.75;53.40;97666.09;5034485;28;20219;-72
2023/09/15 02:53:55;;;;;;;3.27;2.97;;;;;;;18.70;53.53;97677.31;5035203;28;20245;-72
2023/09/15 02:56:22;;;;;;;4.27;2.90;;;;;;;18.66;53.16;97668.06;5029690;28;20645;-72
2023/09/15 02:58:48;;;;;;;11.07;3.50;;;;;;;18.63;53.43;97669.28;5038136;28;20222;-71
2023/09/15 03:01:15;;;;;;;6.00;3.20;;;;;;;18.67;53.34;97675.03;5036948;28;20494;-73
2023/09/15 03:03:40;;;;;;;3.60;3.13;;;;;;;18.67;52.99;97669.72;5031900;28;20191;-74
2023/09/15 03:06:07;;;;;;;4.77;3.17;;;;;;;18.65;53.29;97666.47;5037880;28;20861;-73
2023/09/15 03:08:33;;;;;;;6.03;3.63;;;;;;;18.62;53.27;97666.84;5028487;28;20211;-72
2023/09/15 03:10:59;;;;;;;3.20;2.90;;;;;;;18.56;53.29;97663.13;5035827;28;20478;-72
2023/09/15 03:13:25;;;;;;;6.60;2.70;;;;;;;18.54;53.55;97665.97;5015343;28;20592;-74
2023/09/15 03:15:50;;;;;;;6.20;3.13;;;;;;;18.50;53.54;97670.03;5036476;28;20187;-73
2023/09/15 03:18:15;;;;;;;4.20;3.50;;;;;;;18.50;53.67;97677.16;5026432;28;20803;-72
2023/09/15 03:20:41;;;;;;;2.97;2.70;;;;;;;18.49;53.59;97675.50;5029106;28;20713;-72
2023/09/15 03:23:07;;;;;;;5.00;2.90;;;;;;;18.48;53.79;97673.84;5025559;28;20192;-72
2023/09/15 03:25:32;;;;;;;4.70;3.50;;;;;;;18.47;53.74;97678.38;5036107;28;20238;-71
2023/09/15 03:27:57;;;;;;;6.90;3.47;;;;;;;18.43;53.82;97685.06;5028544;28;20207;-71
2023/09/15 03:30:23;;;;;;;3.57;3.20;;;;;;;18.46;53.76;97674.06;5032848;28;20238;-73
2023/09/15 03:32:48;;;;;;;4.50;3.23;;;;;;;18.49;53.88;97678.16;5017841;28;20195;-72
2023/09/15 03:35:14;;;;;;;4.17;3.07;;;;;;;18.47;53.67;97672.22;5027042;28;20279;-72
2023/09/15 03:37:40;;;;;;;5.00;3.10;;;;;;;18.44;53.78;97669.97;5023974;28;20215;-72
2023/09/15 03:40:08;;;;;;;5.93;3.50;;;;;;;18.40;53.79;97675.66;5037611;28;20249;-73
2023/09/15 03:42:34;;;;;;;4.73;3.13;;;;;;;18.42;53.95;97675.44;5030943;28;20586;-72
2023/09/15 03:45:00;;;;;;;3.50;3.20;;;;;;;18.44;53.85;97668.13;5028146;28;20434;-72
2023/09/15 03:47:25;;;;;;;4.10;3.70;;;;;;;18.45;53.73;97666.31;5031756;28;20214;-72
2023/09/15 03:49:51;;;;;;;3.77;2.87;;;;;;;18.35;53.33;97666.63;5029807;28;20257;-72
2023/09/15 03:52:16;;;;;;;4.03;3.43;;;;;;;18.29;53.87;97662.91;5027152;28;20624;-72
2023/09/15 03:54:42;;;;;;;3.53;3.13;;;;;;;18.31;53.52;97662.69;5031327;28;20188;-71
2023/09/15 03:57:07;;;;;;;4.30;3.50;;;;;;;18.29;53.59;97662.91;5027716;28;20274;-72
2023/09/15 03:59:33;;;;;;;5.23;3.13;;;;;;;18.30;53.70;97658.41;5033697;28;20221;-71
2023/09/15 04:01:58;;;;;;;3.73;3.27;;;;;;;18.27;53.81;97665.72;5029746;28;20608;-72
2023/09/15 04:04:24;;;;;;;5.20;3.47;;;;;;;18.28;53.79;97663.91;5026124;28;20199;-72
2023/09/15 04:06:50;;;;;;;5.20;2.90;;;;;;;18.22;53.97;97657.53;5031132;28;20207;-71
2023/09/15 04:09:15;;;;;;;5.87;3.40;;;;;;;18.23;53.94;97655.69;5035914;28;20239;-72
2023/09/15 04:11:41;;;;;;;7.73;2.93;;;;;;;18.22;53.89;97662.84;5017157;28;20767;-74
2023/09/15 04:14:06;;;;;;;3.67;3.20;;;;;;;18.23;54.04;97659.19;5035038;28;20215;-72
2023/09/15 04:16:32;;;;;;;4.07;3.27;;;;;;;18.23;53.59;97661.00;5029295;28;20244;-72
2023/09/15 04:18:58;;;;;;;5.00;3.30;;;;;;;18.19;53.92;97657.91;5036946;28;20927;-72
2023/09/15 04:21:23;;;;;;;3.90;2.83;;;;;;;18.11;54.14;97653.56;5036225;28;20293;-73
2023/09/15 04:23:49;;;;;;;4.27;3.47;;;;;;;18.06;54.31;97657.78;5031582;28;20190;-72
2023/09/15 04:26:14;;;;;;;3.77;3.27;;;;;;;18.05;54.25;97654.31;5026153;28;20196;-72
2023/09/15 04:28:40;;;;;;;5.87;3.37;;;;;;;18.08;54.14;97655.75;5032373;28;20318;-71
2023/09/15 04:31:05;;;;;;;3.80;3.50;;;;;;;18.03;54.53;97659.00;5019618;28;20216;-72
2023/09/15 04:33:31;;;;;;;5.10;3.70;;;;;;;18.04;54.47;97650.03;5037030;28;20555;-72
2023/09/15 04:35:56;;;;;;;5.07;3.40;;;;;;;18.04;54.44;97651.84;5009321;28;20192;-72
2023/09/15 04:38:22;;;;;;;6.03;3.40;;;;;;;18.04;54.72;97652.69;5026296;28;20259;-73
2023/09/15 04:40:48;;;;;;;6.37;3.60;;;;;;;18.06;54.34;97652.47;5035680;28;20226;-73
2023/09/15 04:43:16;;;;;;;6.80;3.80;;;;;;;18.08;54.63;97650.47;4974286;28;20756;-71
2023/09/15 04:45:43;;;;;;;3.83;3.53;;;;;;;18.07;54.36;97644.34;5007626;28;20504;-72
2023/09/15 04:48:08;;;;;;;6.47;3.40;;;;;;;18.08;54.41;97645.16;4969007;28;20470;-73
2023/09/15 04:50:36;;;;;;;3.73;3.20;;;;;;;18.06;54.17;97650.66;4997678;28;20828;-72
2023/09/15 04:53:03;;;;;;;4.03;3.43;;;;;;;18.04;54.11;97650.03;5035023;28;20191;-72
2023/09/15 04:55:28;;;;;;;5.53;4.00;;;;;;;18.03;54.40;97643.09;5009415;28;20438;-71
2023/09/15 04:57:53;;;;;;;3.97;3.50;;;;;;;18.03;54.43;97651.03;5027685;28;21193;-72
2023/09/15 05:00:24;;;;;;;12.23;4.60;;;;;;;18.05;54.41;97640.22;5025541;28;20289;-73
2023/09/15 05:02:50;;;;;;;4.80;3.57;;;;;;;17.98;54.17;97639.34;5029605;28;20196;-73
2023/09/15 05:05:15;;;;;;;3.53;3.23;;;;;;;17.94;54.28;97641.53;5024158;28;20422;-72
2023/09/15 05:07:41;;;;;;;3.93;3.50;;;;;;;17.91;54.04;97640.06;5010045;28;20477;-71
2023/09/15 05:10:08;;;;;;;3.83;3.40;;;;;;;17.90;54.16;97643.72;5035189;28;20594;-71
2023/09/15 05:12:34;;;;;;;3.67;3.37;;;;;;;17.88;54.30;97651.06;5029178;28;20198;-73
2023/09/15 05:14:59;;;;;;;13.53;3.20;;;;;;;17.82;54.43;97657.09;5034542;28;20525;-73
2023/09/15 05:17:26;;;;;;;4.50;3.70;;;;;;;17.85;54.92;97661.19;5030685;28;20214;-72
2023/09/15 05:19:53;;;;;;;3.90;3.37;;;;;;;17.88;54.93;97659.03;5027614;28;20191;-72
2023/09/15 05:22:18;;;;;;;4.13;3.17;;;;;;;17.87;54.93;97653.88;5010348;28;20812;-73
2023/09/15 05:24:44;;;;;;;4.10;3.70;;;;;;;17.87;54.78;97660.03;5028719;28;20446;-73
2023/09/15 05:27:09;;;;;;;4.43;3.87;;;;;;;17.88;54.88;97655.53;5028403;28;20195;-72
2023/09/15 05:29:35;;;;;;;4.03;3.40;;;;;;;17.84;54.85;97660.41;5031444;28;20223;-71
2023/09/15 05:32:01;;;;;;;4.67;3.47;;;;;;;17.87;54.87;97659.19;5011465;28;20223;-72
2023/09/15 05:34:26;;;;;;;5.70;4.17;;;;;;;17.88;55.18;97656.38;5022310;28;20200;-72
2023/09/15 05:36:52;;;;;;;5.07;4.30;;;;;;;17.94;55.24;97668.88;5028025;28;20194;-71
2023/09/15 05:39:17;;;;;;;4.23;3.60;;;;;;;17.93;55.14;97667.22;5020313;28;20194;-73
2023/09/15 05:41:43;;;;;;;4.37;3.70;;;;;;;17.99;54.92;97662.22;5042871;28;20272;-72
2023/09/15 05:44:08;;;;;;;5.97;4.13;;;;;;;17.96;54.96;97666.84;5035524;28;20207;-72
2023/09/15 05:46:34;;;;;;;5.20;3.90;;;;;;;18.00;54.98;97666.50;5012099;28;20215;-73
2023/09/15 05:48:59;;;;;;;4.07;3.67;;;;;;;18.05;55.35;97664.09;5010421;28;20747;-73
2023/09/15 05:51:24;;;;;;;5.50;3.90;;;;;;;18.06;55.35;97665.75;5033563;28;21409;-71
2023/09/15 05:53:50;;;;;;;6.60;4.43;;;;;;;18.13;55.48;97663.16;5022450;28;20192;-72
2023/09/15 05:56:17;;;;;;;7.60;4.40;;;;;;;18.26;55.32;97665.94;5029267;28;20219;-72
2023/09/15 05:58:42;;;;;;;5.03;3.90;;;;;;;18.37;55.21;97667.25;5036522;28;20299;-72
2023/09/15 06:01:08;;;;;;;4.23;3.73;;;;;;;18.48;55.03;97671.22;5032836;28;20586;-72
2023/09/15 06:03:33;;;;;;;7.87;4.53;;;;;;;18.58;54.74;97669.88;5030641;28;20279;-71
2023/09/15 06:05:59;;;;;;;6.00;4.00;;;;;;;18.63;55.06;97664.00;5033576;28;20223;-71
2023/09/15 06:08:24;;;;;;;7.27;4.67;;;;;;;18.74;55.18;97670.63;5029203;28;20298;-72
2023/09/15 06:10:49;;;;;;;4.60;4.10;;;;;;;18.79;54.74;97665.53;5031625;28;20751;-71
2023/09/15 06:13:15;;;;;;;5.60;4.20;;;;;;;18.87;54.81;97673.34;5035951;28;20698;-72
2023/09/15 06:15:41;;;;;;;5.30;4.00;;;;;;;18.91;54.84;97675.59;5020107;28;20200;-71
2023/09/15 06:18:07;;;;;;;5.00;4.07;;;;;;;18.97;55.01;97674.88;5007366;28;20694;-73
2023/09/15 06:20:33;;;;;;;13.37;4.53;;;;;;;19.11;54.86;97687.22;5028845;28;20223;-71
2023/09/15 06:22:59;;;;;;;7.73;4.87;;;;;;;19.19;54.69;97676.44;5028888;28;20220;-72
2023/09/15 06:25:24;;;;;;;9.83;4.50;;;;;;;19.27;54.42;97672.78;5027972;28;20970;-72
2023/09/15 06:27:50;;;;;;;5.73;4.23;;;;;;;19.38;54.40;97674.09;5032387;28;20211;-73
2023/09/15 06:30:15;;;;;;;6.87;4.10;;;;;;;19.45;54.52;97672.25;5014306;28;20211;-73
2023/09/15 06:32:41;;;;;;;9.07;4.30;;;;;;;19.56;54.37;97668.22;5029666;28;20229;-72
2023/09/15 06:35:10;;;;;;;9.40;4.83;;;;;;;19.69;54.35;97672.75;5030007;28;20198;-72
2023/09/15 06:37:35;;;;;;;8.57;4.50;;;;;;;19.81;54.39;97670.34;5037167;28;20188;-75
2023/09/15 06:40:01;;;;;;;11.10;4.30;;;;;;;19.91;54.36;97675.31;5033645;28;20457;-71
2023/09/15 06:42:26;;;;;;;12.53;4.93;;;;;;;20.07;53.93;97666.16;5016645;28;20243;-72
2023/09/15 06:44:52;;;;;;;6.63;4.53;;;;;;;20.23;53.61;97667.59;5035507;28;20215;-71
2023/09/15 06:47:17;;;;;;;12.80;4.50;;;;;;;20.35;53.38;97671.28;5035041;28;20278;-71
2023/09/15 06:49:43;;;;;;;9.97;3.67;;;;;;;20.44;53.30;97663.09;5022756;28;20196;-72
2023/09/15 06:52:08;;;;;;;6.20;4.47;;;;;;;20.56;52.92;97662.28;5030957;28;20282;-72
2023/09/15 06:54:34;;;;;;;5.17;4.10;;;;;;;20.68;53.18;97651.81;5028830;28;20207;-71
2023/09/15 06:56:59;;;;;;;14.33;4.30;;;;;;;20.85;52.79;97659.41;5020887;28;20719;-71
2023/09/15 06:59:24;;;;;;;8.63;4.93;;;;;;;21.00;52.43;97654.69;5019176;28;20257;-72
2023/09/15 07:01:50;;;;;;;8.37;5.40;;;;;;;21.13;52.61;97661.00;5028243;28;20685;-73
2023/09/15 07:04:15;;;;;;;10.33;5.80;;;;;;;21.32;52.39;97654.78;5039896;28;20205;-73
2023/09/15 07:06:41;;;;;;;7.33;4.70;;;;;;;21.45;52.27;97659.25;5032886;28;20323;-73
2023/09/15 07:09:07;;;;;;;14.10;5.30;;;;;;;21.59;51.61;97656.53;5033945;28;20380;-72
2023/09/15 07:11:32;;;;;;;6.87;5.30;;;;;;;21.77;51.29;97661.19;5033414;28;20231;-73
2023/09/15 07:13:57;;;;;;;4.70;4.13;;;;;;;21.94;51.11;97645.50;5033153;28;20198;-72
2023/09/15 07:16:23;;;;;;;5.33;4.80;;;;;;;22.07;50.55;97648.09;5036378;28;20195;-72
2023/09/15 07:18:48;;;;;;;5.83;5.13;;;;;;;22.22;49.71;97647.78;5032109;28;20684;-72
2023/09/15 07:21:14;;;;;;;5.13;4.63;;;;;;;22.30;49.89;97651.22;5036606;28;20217;-72
2023/09/15 07:23:39;;;;;;;4.87;4.37;;;;;;;22.53;50.21;97655.97;5036596;28;20751;-71
2023/09/15 07:26:05;;;;;;;5.83;4.63;;;;;;;22.62;49.49;97659.19;5028308;28;20605;-72
2023/09/15 07:28:30;;;;;;;6.80;4.70;;;;;;;22.77;49.27;97653.50;5032771;28;20646;-71
2023/09/15 07:31:03;;;;;;;8.43;5.30;;;;;;;22.92;49.08;97645.97;5036426;28;20211;-71
2023/09/15 07:33:28;;;;;;;9.57;6.80;;;;;;;23.14;48.45;97649.03;5020646;28;20198;-72
2023/09/15 07:36:00;;;;;;;8.30;5.60;;;;;;;23.27;48.28;97652.63;5030420;28;20676;-72
2023/09/15 07:38:26;;;;;;;13.70;8.20;;;;;;;23.34;47.62;97649.88;5034508;28;20218;-72
2023/09/15 07:40:53;;;;;;;13.33;8.27;;;;;;;23.43;47.08;97652.03;5034946;28;20520;-71
2023/09/15 07:43:19;;;;;;;11.07;5.70;;;;;;;23.56;47.39;97647.56;5030254;28;20780;-71
2023/09/15 07:45:44;;;;;;;8.87;6.23;;;;;;;23.71;46.64;97647.16;5029021;28;20549;-71
2023/09/15 07:48:10;;;;;;;11.83;8.13;;;;;;;23.82;46.53;97642.88;5039193;28;20752;-72
2023/09/15 07:50:35;;;;;;;6.53;5.20;;;;;;;23.95;45.93;97636.50;5035083;28;20226;-71
2023/09/15 07:53:01;;;;;;;8.67;5.90;;;;;;;24.05;45.59;97637.63;5035293;28;20195;-72
2023/09/15 07:55:26;;;;;;;11.63;8.00;;;;;;;24.22;45.72;97647.66;5034188;28;20200;-71
2023/09/15 07:57:52;;;;;;;21.30;12.60;;;;;;;24.40;45.25;97638.72;5032191;28;20180;-71
2023/09/15 08:00:17;;;;;;;17.50;6.73;;;;;;;24.58;45.07;97637.81;5036057;28;20567;-72
2023/09/15 08:02:43;;;;;;;17.53;8.53;;;;;;;24.75;45.27;97634.47;5037758;28;20651;-72
2023/09/15 08:05:09;;;;;;;10.13;7.60;;;;;;;24.87;44.89;97640.63;5035438;28;20202;-73
2023/09/15 08:07:34;;;;;;;8.00;5.90;;;;;;;25.06;44.42;97640.50;5043018;28;20215;-72
2023/09/15 08:10:01;;;;;;;6.33;5.70;;;;;;;25.24;44.02;97642.22;5030228;28;20531;-72
2023/09/15 08:12:27;;;;;;;12.33;8.17;;;;;;;25.49;43.58;97641.94;5040320;28;20687;-72
2023/09/15 08:14:52;;;;;;;20.03;10.53;;;;;;;25.64;42.42;97640.63;5028494;28;20446;-72
2023/09/15 08:17:18;;;;;;;10.97;7.70;;;;;;;25.82;42.65;97643.13;5042786;28;20801;-71
2023/09/15 08:19:43;;;;;;;7.47;5.70;;;;;;;25.99;42.37;97636.94;5036582;28;20270;-72
2023/09/15 08:22:08;;;;;;;12.43;7.63;;;;;;;26.07;42.09;97633.88;5022625;28;20290;-72
2023/09/15 08:24:34;;;;;;;15.70;6.20;;;;;;;26.15;42.14;97633.50;5027593;28;20279;-71
2023/09/15 08:26:59;;;;;;;8.90;6.63;;;;;;;26.30;41.78;97637.50;5017556;28;20282;-71
2023/09/15 08:29:25;;;;;;;8.87;6.20;;;;;;;26.41;41.61;97635.78;5028793;28;20699;-72
2023/09/15 08:31:50;;;;;;;13.33;9.10;;;;;;;26.47;41.64;97641.00;5028149;28;20712;-71
2023/09/15 08:34:16;;;;;;;9.97;8.97;;;;;;;26.57;41.70;97634.16;5015643;28;20849;-70
2023/09/15 08:36:42;;;;;;;7.53;5.30;;;;;;;26.72;41.08;97637.06;5027420;28;20191;-72
2023/09/15 08:39:08;;;;;;;8.07;5.53;;;;;;;26.88;41.21;97637.31;5035022;28;20471;-72
2023/09/15 08:41:43;;;;;;;13.23;10.90;;;;;;;27.00;40.75;97623.78;5031684;28;20218;-71
2023/09/15 08:44:11;;;;;;;7.87;6.47;;;;;;;27.09;40.84;97627.66;4990077;28;20195;-71
2023/09/15 08:46:38;;;;;;;8.50;5.20;;;;;;;27.21;40.56;97620.28;5036894;28;20437;-71
2023/09/15 08:49:05;;;;;;;6.50;4.80;;;;;;;27.34;40.29;97610.19;5020715;28;20466;-71
2023/09/15 08:51:31;;;;;;;9.00;4.90;;;;;;;27.47;40.07;97611.72;5021310;28;20449;-71
2023/09/15 08:53:57;;;;;;;7.07;5.23;;;;;;;27.59;40.04;97621.28;5031093;28;20825;-72
2023/09/15 08:56:23;;;;;;;8.97;5.70;;;;;;;27.60;39.51;97616.69;5009255;28;20434;-73
2023/09/15 08:58:49;;;;;;;7.60;6.03;;;;;;;27.85;39.36;97618.84;5030494;28;20203;-73
2023/09/15 09:01:15;;;;;;;8.83;5.50;;;;;;;27.90;38.37;97620.78;5014967;28;20838;-71
2023/09/15 09:03:42;;;;;;;9.40;6.07;;;;;;;28.13;38.44;97608.91;5036590;28;20203;-72
2023/09/15 09:06:10;;;;;;;20.70;16.60;;;;;;;28.39;38.50;97609.09;5021695;28;20437;-72
2023/09/15 09:08:41;;;;;;;7.67;6.87;;;;;;;28.51;37.54;97614.28;5031827;28;20976;-72
2023/09/15 09:11:07;;;;;;;6.90;5.33;;;;;;;28.65;37.16;97610.06;5028777;28;20985;-71
2023/09/15 09:13:33;;;;;;;10.50;5.70;;;;;;;28.66;37.43;97605.50;5022689;28;20503;-72
2023/09/15 09:15:58;;;;;;;7.40;4.43;;;;;;;28.87;37.56;97598.34;5015465;28;20187;-72
2023/09/15 09:18:24;;;;;;;12.80;5.90;;;;;;;28.96;36.55;97598.66;5036950;28;20191;-71
2023/09/15 09:20:50;;;;;;;6.77;4.70;;;;;;;28.99;36.29;97597.31;5029785;28;20306;-72
2023/09/15 09:23:20;;;;;;;6.80;5.43;;;;;;;29.08;36.19;97596.56;5020456;28;20269;-71
2023/09/15 09:25:45;;;;;;;7.50;6.10;;;;;;;29.03;36.29;97596.56;4997491;28;20520;-69
2023/09/15 09:28:12;;;;;;;5.47;4.63;;;;;;;29.18;36.14;97600.38;5020234;28;20493;-72
2023/09/15 09:30:37;;;;;;;5.20;4.70;;;;;;;29.00;36.29;97588.16;5041846;28;20219;-74
2023/09/15 09:33:04;;;;;;;6.10;4.40;;;;;;;29.18;36.32;97587.72;4995754;28;20912;-72
2023/09/15 09:35:30;;;;;;;7.97;5.10;;;;;;;29.41;36.53;97591.03;5006698;28;20191;-72
2023/09/15 09:37:58;;;;;;;6.40;5.77;;;;;;;29.57;35.39;97599.97;5041957;28;20449;-71
2023/09/15 09:40:24;;;;;;;9.00;5.80;;;;;;;29.66;35.46;97590.31;5040567;28;20218;-70
2023/09/15 09:42:50;;;;;;;10.03;4.40;;;;;;;29.75;35.00;97587.88;5020503;28;20430;-73
2023/09/15 09:45:16;;;;;;;6.13;5.27;;;;;;;29.91;35.40;97594.13;5032828;28;20462;-73
2023/09/15 09:47:45;;;;;;;7.93;5.70;;;;;;;30.03;35.18;97592.00;5033516;28;20203;-71
2023/09/15 09:50:11;;;;;;;8.20;4.90;;;;;;;30.06;35.04;97587.94;5030244;28;20473;-71
2023/09/15 09:52:37;;;;;;;14.83;13.07;;;;;;;30.12;34.49;97588.75;5033994;28;20434;-72
2023/09/15 09:55:07;;;;;;;8.50;5.07;;;;;;;30.09;34.98;97582.00;5011443;28;20957;-71
2023/09/15 09:57:33;;;;;;;8.27;5.57;;;;;;;30.15;35.06;97586.31;5018227;28;20969;-72
2023/09/15 09:59:59;;;;;;;8.70;5.80;;;;;;;30.17;34.89;97580.66;5042272;28;20442;-71
2023/09/15 10:02:26;;;;;;;4.83;4.37;;;;;;;30.25;34.90;97582.78;5043029;28;20195;-73
2023/09/15 10:04:51;;;;;;;6.30;5.70;;;;;;;30.37;34.95;97577.09;5040762;28;20237;-74
2023/09/15 10:07:17;;;;;;;5.33;4.77;;;;;;;30.37;34.45;97566.28;5039020;28;20520;-72
2023/09/15 10:09:43;;;;;;;6.57;4.63;;;;;;;30.52;34.73;97562.75;5044283;28;20206;-72
2023/09/15 10:12:10;;;;;;;10.63;5.73;;;;;;;30.58;34.30;97566.28;5036213;28;20202;-72
2023/09/15 10:14:35;;;;;;;5.80;4.60;;;;;;;30.58;34.18;97566.28;4999165;28;20188;-71
2023/09/15 10:17:00;;;;;;;12.23;4.90;;;;;;;30.61;34.61;97565.75;5011899;28;20514;-71
2023/09/15 10:19:26;;;;;;;5.83;5.23;;;;;;;30.76;33.78;97559.47;5011440;28;20227;-74
2023/09/15 10:21:52;;;;;;;16.13;5.40;;;;;;;30.78;34.25;97565.41;5010886;28;20291;-72
2023/09/15 10:24:17;;;;;;;13.77;5.60;;;;;;;30.87;34.88;97552.13;5015240;28;20542;-71
2023/09/15 10:26:44;;;;;;;9.80;5.30;;;;;;;31.02;33.82;97553.97;5006573;28;20196;-71
2023/09/15 10:29:13;;;;;;;6.37;5.17;;;;;;;30.99;34.12;97536.41;5033112;28;20303;-73
2023/09/15 10:31:45;;;;;;;5.47;4.60;;;;;;;31.00;34.08;97545.31;5026100;28;21010;-72
2023/09/15 10:34:11;;;;;;;6.07;4.70;;;;;;;31.12;34.27;97547.69;5023546;28;20430;-71
2023/09/15 10:36:39;;;;;;;5.83;4.90;;;;;;;31.26;33.61;97543.31;5017913;28;20440;-71
2023/09/15 10:39:14;;;;;;;5.57;4.60;;;;;;;31.30;33.43;97538.97;5026703;28;20585;-73
2023/09/15 10:41:40;;;;;;;4.90;4.27;;;;;;;31.42;33.36;97541.34;5011663;28;20450;-72
2023/09/15 10:44:05;;;;;;;6.70;4.20;;;;;;;31.35;33.19;97536.22;5030293;28;20553;-71
2023/09/15 10:46:38;;;;;;;4.73;4.27;;;;;;;31.34;33.63;97531.91;5033728;28;20250;-70
2023/09/15 10:49:14;;;;;;;7.07;4.80;;;;;;;31.46;33.14;97526.13;5034802;28;20215;-71
2023/09/15 10:51:53;;;;;;;5.63;4.93;;;;;;;31.58;33.20;97533.09;5030535;28;20486;-72
2023/09/15 10:54:19;;;;;;;7.70;7.00;;;;;;;31.59;32.97;97530.13;5028951;28;20426;-71
2023/09/15 10:56:45;;;;;;;5.10;4.60;;;;;;;31.65;32.79;97528.19;5010127;28;20430;-72
2023/09/15 10:59:11;;;;;;;5.50;5.00;;;;;;;31.62;32.60;97526.84;5031905;28;20706;-72
2023/09/15 11:01:36;;;;;;;6.77;4.53;;;;;;;31.69;32.95;97518.44;5034149;28;20462;-72
2023/09/15 11:04:03;;;;;;;5.27;4.00;;;;;;;31.68;32.73;97509.47;5031317;28;20208;-73
2023/09/15 11:06:29;;;;;;;7.30;4.23;;;;;;;31.84;32.95;97510.16;5034173;28;20637;-73
2023/09/15 11:08:57;;;;;;;4.77;4.37;;;;;;;31.85;32.66;97511.78;5027855;28;20470;-72
2023/09/15 11:11:23;;;;;;;6.27;4.77;;;;;;;31.81;33.24;97516.19;5028765;28;20450;-72
2023/09/15 11:13:48;;;;;;;5.80;4.60;;;;;;;31.84;32.67;97517.50;5030522;28;21074;-72
2023/09/15 11:16:14;;;;;;;5.20;4.37;;;;;;;31.88;33.01;97509.59;5030994;28;20194;-73
2023/09/15 11:18:39;;;;;;;7.37;6.67;;;;;;;31.82;32.58;97506.94;5041020;28;20194;-72
2023/09/15 11:21:05;;;;;;;8.80;8.00;;;;;;;31.88;32.97;97509.59;5027789;28;20271;-71
2023/09/15 11:23:31;;;;;;;9.37;5.63;;;;;;;31.93;33.02;97496.81;5033428;28;20203;-72
2023/09/15 11:26:04;;;;;;;5.80;5.20;;;;;;;31.95;32.74;97499.22;5031932;28;20995;-72
2023/09/15 11:28:31;;;;;;;4.83;4.23;;;;;;;32.14;32.99;97497.44;5033014;28;20202;-72